Time;durP1;ratioP1;P1;durP2;ratioP2;P2;SDS_P1;SDS_P2;PMS_P1;PMS_P2;Temp;Humidity;BMP_temperature;BMP_pressure;BME280_temperature;BME280_humidity;BME280_pressure;Samples;Min_cycle;Max_cycle;Signal;HPM_P1;HPM_P2
2021/07/01 00:01:03;;;;;;;;;;;25.00;44.10;;;;;;1555104;74;648;-76
2021/07/01 00:03:04;;;;;;;;;;;24.90;44.10;;;;;;1567845;74;1940;-75
2021/07/01 00:05:07;;;;;;;;;;;24.90;44.00;;;;;;1568478;74;658;-77
2021/07/01 00:07:09;;;;;;;;;;;24.90;43.80;;;;;;1565252;74;802;-78
2021/07/01 00:09:19;;;;;;;;;;;25.00;43.80;;;;;;1560745;75;724;-75
2021/07/01 00:11:14;;;;;;;;;;;24.90;43.80;;;;;;1563168;74;1107;-76
2021/07/01 00:13:16;;;;;;;;;;;24.90;43.80;;;;;;1557138;74;1227;-76
2021/07/01 00:15:22;;;;;;;;;;;24.90;43.70;;;;;;1564076;74;718;-78
2021/07/01 00:17:24;;;;;;;;;;;24.90;43.70;;;;;;1579680;74;709;-75
2021/07/01 00:19:26;;;;;;;;;;;24.90;43.80;;;;;;1564259;75;735;-78
2021/07/01 00:21:28;;;;;;;;;;;24.90;43.80;;;;;;1558826;74;572;-78
2021/07/01 00:23:30;;;;;;;;;;;24.90;43.70;;;;;;1562630;75;1948;-75
2021/07/01 00:25:32;;;;;;;;;;;24.90;43.70;;;;;;1562201;74;726;-76
2021/07/01 00:27:33;;;;;;;;;;;24.80;43.40;;;;;;1561945;75;742;-75
2021/07/01 00:29:35;;;;;;;;;;;24.90;43.60;;;;;;1552198;74;736;-75
2021/07/01 00:31:37;;;;;;;;;;;24.90;43.60;;;;;;1567128;74;740;-76
2021/07/01 00:33:39;;;;;;;;;;;24.80;43.70;;;;;;1575790;74;1082;-75
2021/07/01 00:35:41;;;;;;;;;;;24.90;43.70;;;;;;1565568;74;691;-76
2021/07/01 00:37:43;;;;;;;;;;;24.90;43.70;;;;;;1557835;74;730;-78
2021/07/01 00:39:45;;;;;;;;;;;24.90;43.70;;;;;;1561350;75;812;-77
2021/07/01 00:41:47;;;;;;;;;;;24.90;43.50;;;;;;1558838;74;772;-78
2021/07/01 00:43:49;;;;;;;;;;;24.90;43.70;;;;;;1566214;74;1942;-77
2021/07/01 00:45:51;;;;;;;;;;;24.90;43.80;;;;;;1565902;74;673;-74
2021/07/01 00:47:53;;;;;;;;;;;24.90;43.60;;;;;;1559437;74;726;-75
2021/07/01 00:49:55;;;;;;;;;;;24.90;43.50;;;;;;1556230;74;838;-74
2021/07/01 00:51:57;;;;;;;;;;;24.90;43.40;;;;;;1560096;71;220837;-60
2021/07/01 00:53:58;;;;;;;;;;;24.80;43.50;;;;;;1599160;73;708;-59
2021/07/01 00:56:01;;;;;;;;;;;24.90;43.60;;;;;;1596487;73;767;-59
2021/07/01 00:58:03;;;;;;;;;;;24.90;43.60;;;;;;1592462;72;708;-58
2021/07/01 01:00:12;;;;;;;;;;;24.80;43.50;;;;;;1575893;74;814;-59
2021/07/01 01:02:10;;;;;;;;;;;24.90;43.60;;;;;;1616671;72;1684;-59
2021/07/01 01:04:12;;;;;;;;;;;24.90;43.70;;;;;;1643109;71;1968;-58
2021/07/01 01:06:14;;;;;;;;;;;24.90;43.70;;;;;;1637031;71;766;-61
2021/07/01 01:08:15;;;;;;;;;;;24.90;43.80;;;;;;1631847;71;805;-59
2021/07/01 01:10:17;;;;;;;;;;;24.90;43.80;;;;;;1628791;71;746;-60
2021/07/01 01:12:19;;;;;;;;;;;24.90;43.70;;;;;;1620793;72;1091;-58
2021/07/01 01:14:21;;;;;;;;;;;24.90;43.80;;;;;;1637969;71;805;-58
2021/07/01 01:16:23;;;;;;;;;;;24.90;43.70;;;;;;1629326;71;790;-57
2021/07/01 01:18:25;;;;;;;;;;;24.90;43.60;;;;;;1618927;72;744;-60
2021/07/01 01:20:27;;;;;;;;;;;24.90;43.50;;;;;;1619718;71;916;-59
2021/07/01 01:22:29;;;;;;;;;;;24.90;43.50;;;;;;1637247;71;1130;-59
2021/07/01 01:24:33;;;;;;;;;;;24.80;43.30;;;;;;1625812;71;1941;-57
2021/07/01 01:26:35;;;;;;;;;;;25.00;43.40;;;;;;1633692;71;822;-60
2021/07/01 01:28:37;;;;;;;;;;;24.90;43.30;;;;;;1620114;71;812;-59
2021/07/01 01:30:40;;;;;;;;;;;24.90;43.40;;;;;;1616434;72;787;-61
2021/07/01 01:32:42;;;;;;;;;;;24.90;43.40;;;;;;1620134;71;1120;-59
2021/07/01 01:34:44;;;;;;;;;;;24.90;43.20;;;;;;1621626;71;831;-59
2021/07/01 01:36:46;;;;;;;;;;;25.00;43.10;;;;;;1608746;71;671;-60
2021/07/01 01:38:48;;;;;;;;;;;25.00;43.10;;;;;;1627104;71;824;-59
2021/07/01 01:40:50;;;;;;;;;;;24.90;43.00;;;;;;1620847;71;791;-60
2021/07/01 01:42:52;;;;;;;;;;;25.00;43.10;;;;;;1621242;71;1063;-60
2021/07/01 01:44:54;;;;;;;;;;;25.00;43.10;;;;;;1633157;71;1940;-59
2021/07/01 01:46:55;;;;;;;;;;;24.90;43.00;;;;;;1620632;72;719;-61
2021/07/01 01:48:57;;;;;;;;;;;24.90;43.10;;;;;;1621277;72;760;-60
2021/07/01 01:50:59;;;;;;;;;;;24.90;43.20;;;;;;1628593;71;1108;-58
2021/07/01 01:53:01;;;;;;;;;;;24.80;43.10;;;;;;1635790;71;783;-58
2021/07/01 01:55:03;;;;;;;;;;;24.90;43.20;;;;;;1619207;71;797;-58
2021/07/01 01:57:05;;;;;;;;;;;24.90;43.10;;;;;;1622233;71;786;-58
2021/07/01 01:59:07;;;;;;;;;;;24.80;43.10;;;;;;1613668;71;657;-59
2021/07/01 02:01:09;;;;;;;;;;;24.90;43.10;;;;;;1615981;71;1227;-60
2021/07/01 02:03:11;;;;;;;;;;;24.90;43.10;;;;;;1631041;71;757;-57
2021/07/01 02:05:13;;;;;;;;;;;24.80;42.90;;;;;;1633729;71;1944;-58
2021/07/01 02:07:15;;;;;;;;;;;24.90;43.10;;;;;;1632120;72;809;-58
2021/07/01 02:09:17;;;;;;;;;;;24.90;43.00;;;;;;1629565;71;709;-59
2021/07/01 02:11:18;;;;;;;;;;;24.90;43.00;;;;;;1632934;71;1078;-59
2021/07/01 02:13:20;;;;;;;;;;;24.90;43.10;;;;;;1620188;72;775;-58
2021/07/01 02:15:23;;;;;;;;;;;24.90;43.00;;;;;;1626638;71;797;-57
2021/07/01 02:17:25;;;;;;;;;;;24.90;42.90;;;;;;1627200;71;820;-59
2021/07/01 02:19:27;;;;;;;;;;;24.90;42.80;;;;;;1626031;71;815;-61
2021/07/01 02:21:29;;;;;;;;;;;24.80;42.80;;;;;;1618405;71;1136;-58
2021/07/01 02:23:30;;;;;;;;;;;24.80;42.90;;;;;;1631511;71;1934;-59
2021/07/01 02:25:33;;;;;;;;;;;24.80;43.00;;;;;;1634052;71;775;-60
2021/07/01 02:27:35;;;;;;;;;;;24.80;43.00;;;;;;1631669;71;769;-60
2021/07/01 02:29:37;;;;;;;;;;;24.90;43.00;;;;;;1629552;71;772;-57
2021/07/01 02:31:39;;;;;;;;;;;24.80;42.80;;;;;;1619307;71;1187;-59
2021/07/01 02:33:41;;;;;;;;;;;24.90;42.90;;;;;;1620851;71;758;-59
2021/07/01 02:35:42;;;;;;;;;;;24.90;42.80;;;;;;1607169;71;784;-59
2021/07/01 02:37:44;;;;;;;;;;;24.80;42.70;;;;;;1615824;71;872;-59
2021/07/01 02:39:46;;;;;;;;;;;24.80;42.80;;;;;;1622162;72;660;-58
2021/07/01 02:41:48;;;;;;;;;;;24.80;42.80;;;;;;1625485;71;1090;-55
2021/07/01 02:43:50;;;;;;;;;;;24.80;42.80;;;;;;1630020;72;1923;-57
2021/07/01 02:45:52;;;;;;;;;;;24.80;42.60;;;;;;1616647;71;869;-56
2021/07/01 02:47:54;;;;;;;;;;;24.90;42.70;;;;;;1632745;71;788;-59
2021/07/01 02:49:56;;;;;;;;;;;24.90;42.80;;;;;;1620238;71;719;-58
2021/07/01 02:51:58;;;;;;;;;;;24.80;42.60;;;;;;1621131;71;1124;-55
2021/07/01 02:54:00;;;;;;;;;;;24.80;42.80;;;;;;1623307;72;800;-57
2021/07/01 02:56:01;;;;;;;;;;;24.80;42.70;;;;;;1615433;71;885;-57
2021/07/01 02:58:03;;;;;;;;;;;24.80;42.90;;;;;;1626855;71;732;-57
2021/07/01 03:00:06;;;;;;;;;;;24.90;43.00;;;;;;1614622;71;632;-57
2021/07/01 03:02:08;;;;;;;;;;;24.80;42.80;;;;;;1614128;71;1154;-59
2021/07/01 03:04:10;;;;;;;;;;;24.90;42.90;;;;;;1617338;71;1924;-58
2021/07/01 03:06:12;;;;;;;;;;;24.80;42.80;;;;;;1619128;71;877;-57
2021/07/01 03:08:14;;;;;;;;;;;24.80;42.80;;;;;;1635450;71;945;-59
2021/07/01 03:10:16;;;;;;;;;;;24.90;42.90;;;;;;1615477;71;780;-57
2021/07/01 03:12:17;;;;;;;;;;;24.80;42.80;;;;;;1630070;71;1110;-58
2021/07/01 03:14:19;;;;;;;;;;;24.80;42.90;;;;;;1620125;71;772;-58
2021/07/01 03:16:21;;;;;;;;;;;24.80;42.90;;;;;;1622473;72;781;-57
2021/07/01 03:18:23;;;;;;;;;;;24.90;43.10;;;;;;1624706;71;761;-58
2021/07/01 03:20:25;;;;;;;;;;;24.80;43.00;;;;;;1614277;71;780;-57
2021/07/01 03:22:27;;;;;;;;;;;25.00;43.10;;;;;;1623382;71;1090;-56
2021/07/01 03:24:29;;;;;;;;;;;24.80;43.00;;;;;;1619191;71;1943;-58
2021/07/01 03:26:31;;;;;;;;;;;24.80;43.00;;;;;;1619985;71;721;-57
2021/07/01 03:28:32;;;;;;;;;;;24.80;43.10;;;;;;1616701;71;750;-59
2021/07/01 03:30:34;;;;;;;;;;;24.80;43.10;;;;;;1613242;71;811;-58
2021/07/01 03:32:36;;;;;;;;;;;24.90;43.20;;;;;;1622329;71;1191;-59
2021/07/01 03:34:38;;;;;;;;;;;24.80;43.10;;;;;;1619338;71;756;-58
2021/07/01 03:36:40;;;;;;;;;;;24.80;43.10;;;;;;1614204;71;773;-58
2021/07/01 03:38:42;;;;;;;;;;;24.80;43.00;;;;;;1616401;71;724;-58
2021/07/01 03:40:44;;;;;;;;;;;24.80;43.10;;;;;;1618617;71;764;-58
2021/07/01 03:42:46;;;;;;;;;;;24.80;43.00;;;;;;1614243;71;1103;-58
2021/07/01 03:44:48;;;;;;;;;;;24.80;43.10;;;;;;1615801;71;1913;-57
2021/07/01 03:46:50;;;;;;;;;;;24.80;43.10;;;;;;1624922;71;776;-58
2021/07/01 03:48:51;;;;;;;;;;;24.80;43.10;;;;;;1611587;71;777;-58
2021/07/01 03:50:53;;;;;;;;;;;24.80;43.20;;;;;;1619030;71;807;-59
2021/07/01 03:52:55;;;;;;;;;;;24.80;43.20;;;;;;1622484;71;1126;-59
2021/07/01 03:54:57;;;;;;;;;;;24.80;43.20;;;;;;1609546;71;768;-57
2021/07/01 03:57:00;;;;;;;;;;;24.80;43.20;;;;;;1616730;71;786;-59
2021/07/01 03:59:02;;;;;;;;;;;24.80;43.30;;;;;;1620815;71;811;-60
2021/07/01 04:01:04;;;;;;;;;;;24.80;43.10;;;;;;1620004;71;1191;-58
2021/07/01 04:03:06;;;;;;;;;;;24.80;43.20;;;;;;1617491;71;776;-59
2021/07/01 04:05:08;;;;;;;;;;;24.70;43.20;;;;;;1610835;71;1931;-60
2021/07/01 04:07:10;;;;;;;;;;;24.70;43.20;;;;;;1619046;71;788;-58
2021/07/01 04:09:11;;;;;;;;;;;24.70;43.20;;;;;;1618561;71;671;-58
2021/07/01 04:11:14;;;;;;;;;;;24.80;43.30;;;;;;1608888;71;1128;-57
2021/07/01 04:13:16;;;;;;;;;;;24.80;43.30;;;;;;1611614;71;780;-59
2021/07/01 04:15:18;;;;;;;;;;;24.80;43.20;;;;;;1614142;71;740;-57
2021/07/01 04:17:20;;;;;;;;;;;24.70;43.30;;;;;;1615053;71;746;-57
2021/07/01 04:19:22;;;;;;;;;;;24.70;43.20;;;;;;1614370;71;756;-57
2021/07/01 04:21:28;;;;;;;;;;;24.70;43.30;;;;;;1586521;73;1180;-58
2021/07/01 04:23:28;;;;;;;;;;;24.70;43.30;;;;;;1611830;71;1300;-59
2021/07/01 04:25:29;;;;;;;;;;;24.70;43.40;;;;;;1611972;71;1936;-59
2021/07/01 04:27:31;;;;;;;;;;;24.70;43.30;;;;;;1614717;71;755;-59
2021/07/01 04:29:33;;;;;;;;;;;24.70;43.30;;;;;;1625445;71;809;-59
2021/07/01 04:31:35;;;;;;;;;;;24.70;43.30;;;;;;1638708;71;1101;-60
2021/07/01 04:33:37;;;;;;;;;;;24.70;43.40;;;;;;1612603;71;755;-60
2021/07/01 04:35:39;;;;;;;;;;;24.70;43.30;;;;;;1632742;71;783;-59
2021/07/01 04:37:41;;;;;;;;;;;24.70;43.40;;;;;;1639462;71;797;-58
2021/07/01 04:39:43;;;;;;;;;;;24.70;43.40;;;;;;1622012;71;912;-59
2021/07/01 04:41:45;;;;;;;;;;;24.70;43.40;;;;;;1623198;71;1145;-58
2021/07/01 04:43:47;;;;;;;;;;;24.70;43.40;;;;;;1610686;72;796;-60
2021/07/01 04:45:49;;;;;;;;;;;24.70;43.40;;;;;;1640480;71;1926;-60
2021/07/01 04:47:51;;;;;;;;;;;24.70;43.40;;;;;;1627124;72;711;-59
2021/07/01 04:49:52;;;;;;;;;;;24.70;43.40;;;;;;1638472;71;768;-58
2021/07/01 04:51:54;;;;;;;;;;;24.60;43.20;;;;;;1628863;71;1123;-59
2021/07/01 04:53:56;;;;;;;;;;;24.70;43.40;;;;;;1622156;71;684;-61
2021/07/01 04:55:58;;;;;;;;;;;24.60;43.30;;;;;;1640976;71;806;-59
2021/07/01 04:58:00;;;;;;;;;;;24.70;43.40;;;;;;1627615;71;676;-58
2021/07/01 05:00:02;;;;;;;;;;;24.70;43.40;;;;;;1627806;72;941;-60
2021/07/01 05:02:04;;;;;;;;;;;24.70;43.40;;;;;;1632653;71;1117;-60
2021/07/01 05:04:10;;;;;;;;;;;24.70;43.50;;;;;;1620697;71;781;-58
2021/07/01 05:06:12;;;;;;;;;;;24.70;43.50;;;;;;1627108;71;1929;-59
2021/07/01 05:08:13;;;;;;;;;;;24.70;43.50;;;;;;1634597;71;710;-59
2021/07/01 05:10:15;;;;;;;;;;;24.70;43.40;;;;;;1620113;71;772;-58
2021/07/01 05:12:17;;;;;;;;;;;24.70;43.40;;;;;;1628022;71;1153;-58
2021/07/01 05:14:19;;;;;;;;;;;24.70;43.40;;;;;;1626722;71;705;-58
2021/07/01 05:16:21;;;;;;;;;;;24.70;43.50;;;;;;1628165;71;792;-58
2021/07/01 05:18:23;;;;;;;;;;;24.70;43.50;;;;;;1623572;72;711;-60
2021/07/01 05:20:25;;;;;;;;;;;24.70;43.50;;;;;;1622841;71;728;-58
2021/07/01 05:22:27;;;;;;;;;;;24.70;43.50;;;;;;1620787;71;1130;-58
2021/07/01 05:24:28;;;;;;;;;;;24.60;43.40;;;;;;1631579;71;825;-59
2021/07/01 05:26:30;;;;;;;;;;;24.70;43.50;;;;;;1619206;71;1943;-58
2021/07/01 05:28:32;;;;;;;;;;;24.70;43.40;;;;;;1613919;71;753;-58
2021/07/01 05:30:34;;;;;;;;;;;24.60;43.30;;;;;;1614447;71;793;-57
2021/07/01 05:32:36;;;;;;;;;;;24.70;43.50;;;;;;1617965;71;1130;-58
2021/07/01 05:34:38;;;;;;;;;;;24.60;43.40;;;;;;1613270;71;797;-56
2021/07/01 05:36:40;;;;;;;;;;;24.60;43.40;;;;;;1618678;71;757;-58
2021/07/01 05:38:42;;;;;;;;;;;24.70;43.40;;;;;;1613710;71;792;-60
2021/07/01 05:40:44;;;;;;;;;;;24.60;43.30;;;;;;1621997;71;777;-57
2021/07/01 05:42:46;;;;;;;;;;;24.70;43.30;;;;;;1615407;71;1101;-60
2021/07/01 05:44:48;;;;;;;;;;;24.70;43.40;;;;;;1613981;71;1930;-57
2021/07/01 05:46:50;;;;;;;;;;;24.60;43.30;;;;;;1621269;71;837;-61
2021/07/01 05:48:51;;;;;;;;;;;24.70;43.50;;;;;;1611311;71;791;-59
2021/07/01 05:53:07;;;;;;;;;;;24.70;43.60;;;;;;1617761;71;854;-58
2021/07/01 05:55:07;;;;;;;;;;;24.80;43.60;;;;;;1638566;71;1661;-58
2021/07/01 05:57:09;;;;;;;;;;;24.70;43.60;;;;;;1619652;71;689;-58
2021/07/01 05:59:11;;;;;;;;;;;24.70;43.70;;;;;;1639576;71;733;-58
2021/07/01 06:01:13;;;;;;;;;;;24.70;43.80;;;;;;1638284;71;1189;-59
2021/07/01 06:03:15;;;;;;;;;;;24.70;43.80;;;;;;1628889;71;682;-58
2021/07/01 06:05:16;;;;;;;;;;;24.70;43.90;;;;;;1628279;71;1913;-57
2021/07/01 06:07:20;;;;;;;;;;;24.70;43.90;;;;;;1623614;71;787;-58
2021/07/01 06:09:23;;;;;;;;;;;24.80;43.90;;;;;;1615351;71;989;-60
2021/07/01 06:11:25;;;;;;;;;;;24.70;43.90;;;;;;1618838;71;1088;-55
2021/07/01 06:13:27;;;;;;;;;;;24.70;43.90;;;;;;1631448;71;789;-57
2021/07/01 06:15:28;;;;;;;;;;;24.70;43.90;;;;;;1626284;71;799;-58
2021/07/01 06:17:36;;;;;;;;;;;24.70;43.90;;;;;;1631748;71;739;-55
2021/07/01 06:19:35;;;;;;;;;;;24.70;43.80;;;;;;1626724;71;1392;-57
2021/07/01 06:21:37;;;;;;;;;;;24.70;43.90;;;;;;1635063;71;1108;-57
2021/07/01 06:23:39;;;;;;;;;;;24.70;43.90;;;;;;1611923;71;705;-55
2021/07/01 06:25:41;;;;;;;;;;;24.70;43.80;;;;;;1623414;71;1934;-56
2021/07/01 06:27:43;;;;;;;;;;;24.60;43.70;;;;;;1640306;71;925;-58
2021/07/01 06:29:45;;;;;;;;;;;24.70;43.90;;;;;;1627418;71;718;-60
2021/07/01 06:31:47;;;;;;;;;;;24.60;43.70;;;;;;1626556;71;1087;-57
2021/07/01 06:33:49;;;;;;;;;;;24.70;43.90;;;;;;1625839;71;748;-60
2021/07/01 06:35:51;;;;;;;;;;;24.70;43.90;;;;;;1630194;71;761;-59
2021/07/01 06:37:54;;;;;;;;;;;24.60;43.80;;;;;;1605988;71;217658;-66
2021/07/01 06:39:56;;;;;;;;;;;24.60;43.80;;;;;;1557451;75;820;-68
2021/07/01 06:41:58;;;;;;;;;;;24.60;43.70;;;;;;1554685;75;730;-65
2021/07/01 06:44:00;;;;;;;;;;;24.60;43.70;;;;;;1547642;75;718;-67
2021/07/01 06:46:04;;;;;;;;;;;24.60;43.60;;;;;;1551091;75;1940;-68
2021/07/01 06:48:06;;;;;;;;;;;24.60;43.40;;;;;;1550943;75;1184;-68
2021/07/01 06:50:08;;;;;;;;;;;24.60;43.40;;;;;;1565836;74;755;-67
2021/07/01 06:52:11;;;;;;;;;;;24.60;43.40;;;;;;1567972;75;765;-67
2021/07/01 06:54:16;;;;;;;;;;;24.50;43.50;;;;;;1563198;75;708;-68
2021/07/01 06:56:17;;;;;;;;;;;24.50;43.50;;;;;;1538254;75;1590;-67
2021/07/01 06:58:19;;;;;;;;;;;24.60;43.60;;;;;;1573806;74;1084;-66
2021/07/01 07:00:21;;;;;;;;;;;24.50;43.60;;;;;;1561652;74;809;-65
2021/07/01 07:02:23;;;;;;;;;;;24.50;43.70;;;;;;1567799;74;715;-65
2021/07/01 07:04:25;;;;;;;;;;;24.50;43.80;;;;;;1583411;74;712;-69
2021/07/01 07:06:27;;;;;;;;;;;24.50;43.70;;;;;;1567500;75;1926;-69
2021/07/01 07:08:29;;;;;;;;;;;24.40;43.70;;;;;;1564641;75;1157;-69
2021/07/01 07:10:30;;;;;;;;;;;24.50;43.90;;;;;;1571982;75;665;-67
2021/07/01 07:12:38;;;;;;;;;;;24.50;43.90;;;;;;1579863;75;722;-70
2021/07/01 07:14:36;;;;;;;;;;;24.40;43.80;;;;;;1571934;75;1535;-70
2021/07/01 07:16:39;;;;;;;;;;;24.40;43.90;;;;;;1563292;75;734;-69
2021/07/01 07:18:41;;;;;;;;;;;24.40;43.80;;;;;;1569334;74;1108;-68
2021/07/01 07:20:43;;;;;;;;;;;24.40;43.80;;;;;;1571827;74;772;-68
2021/07/01 07:22:45;;;;;;;;;;;24.30;43.80;;;;;;1577711;75;649;-68
2021/07/01 07:24:48;;;;;;;;;;;24.40;43.90;;;;;;1582014;73;700;-68
2021/07/01 07:26:51;;;;;;;;;;;24.40;43.90;;;;;;1577821;74;1911;-68
2021/07/01 07:28:54;;;;;;;;;;;24.30;44.00;;;;;;1574261;75;1097;-68
2021/07/01 07:30:56;;;;;;;;;;;24.40;44.10;;;;;;1577053;75;1076;-67
2021/07/01 07:32:58;;;;;;;;;;;24.40;44.10;;;;;;1579129;74;773;-69
2021/07/01 07:35:00;;;;;;;;;;;24.30;44.20;;;;;;1573241;74;702;-70
2021/07/01 07:37:02;;;;;;;;;;;24.30;44.20;;;;;;1560250;75;710;-70
2021/07/01 07:39:05;;;;;;;;;;;24.30;44.10;;;;;;1573473;75;1018;-68
2021/07/01 07:41:07;;;;;;;;;;;24.30;44.20;;;;;;1571370;75;795;-68
2021/07/01 07:43:13;;;;;;;;;;;24.30;44.20;;;;;;1578160;74;658;-69
2021/07/01 07:45:15;;;;;;;;;;;24.20;44.10;;;;;;1577526;75;741;-66
2021/07/01 07:47:17;;;;;;;;;;;24.20;44.10;;;;;;1569944;74;1939;-70
2021/07/01 07:49:19;;;;;;;;;;;24.30;44.40;;;;;;1574942;75;784;-69
2021/07/01 07:51:23;;;;;;;;;;;24.20;44.30;;;;;;1579223;74;789;-70
2021/07/01 07:53:25;;;;;;;;;;;24.20;44.30;;;;;;1569833;75;720;-68
2021/07/01 07:55:27;;;;;;;;;;;24.20;44.40;;;;;;1572883;75;711;-70
2021/07/01 07:57:29;;;;;;;;;;;24.30;44.40;;;;;;1575358;74;1097;-71
2021/07/01 07:59:31;;;;;;;;;;;24.20;44.20;;;;;;1575884;74;665;-68
2021/07/01 08:01:34;;;;;;;;;;;24.20;44.30;;;;;;1579724;74;821;-68
2021/07/01 08:03:37;;;;;;;;;;;24.20;44.30;;;;;;1580784;74;813;-68
2021/07/01 08:05:39;;;;;;;;;;;24.10;44.30;;;;;;1573426;74;1939;-68
2021/07/01 08:07:41;;;;;;;;;;;24.20;44.40;;;;;;1573045;74;1147;-68
2021/07/01 08:09:43;;;;;;;;;;;24.20;44.40;;;;;;1574933;74;705;-68
2021/07/01 08:11:45;;;;;;;;;;;24.10;44.40;;;;;;1577855;75;759;-66
2021/07/01 08:13:48;;;;;;;;;;;24.10;44.40;;;;;;1583030;75;792;-68
2021/07/01 08:15:50;;;;;;;;;;;24.20;44.40;;;;;;1574456;73;697;-68
2021/07/01 08:17:53;;;;;;;;;;;24.20;44.50;;;;;;1573925;75;1219;-67
2021/07/01 08:19:55;;;;;;;;;;;24.10;44.40;;;;;;1570161;74;771;-70
2021/07/01 08:21:57;;;;;;;;;;;24.10;44.50;;;;;;1575552;75;674;-70
2021/07/01 08:23:59;;;;;;;;;;;24.10;44.50;;;;;;1561758;75;781;-69
2021/07/01 08:26:03;;;;;;;;;;;24.10;44.50;;;;;;1579701;74;1931;-66
2021/07/01 08:28:05;;;;;;;;;;;24.10;44.50;;;;;;1579392;75;1142;-70
2021/07/01 08:30:07;;;;;;;;;;;24.10;44.70;;;;;;1559227;74;713;-70
2021/07/01 08:32:09;;;;;;;;;;;24.10;44.70;;;;;;1571777;74;788;-69
2021/07/01 08:34:11;;;;;;;;;;;24.10;44.70;;;;;;1572161;74;745;-67
2021/07/01 08:36:20;;;;;;;;;;;24.00;44.70;;;;;;1580082;75;757;-68
2021/07/01 08:38:22;;;;;;;;;;;24.10;44.80;;;;;;1563725;75;1874;-69
2021/07/01 08:40:26;;;;;;;;;;;24.00;44.70;;;;;;1569977;74;830;-69
2021/07/01 08:42:34;;;;;;;;;;;24.10;44.70;;;;;;1561460;74;1959;-69
2021/07/01 08:44:42;;;;;;;;;;;24.00;44.60;;;;;;1569155;74;719;-69
2021/07/01 08:46:48;;;;;;;;;;;24.10;44.80;;;;;;1583695;75;1898;-67
2021/07/01 08:48:55;;;;;;;;;;;24.00;44.80;;;;;;1585288;74;1105;-69
2021/07/01 08:50:57;;;;;;;;;;;24.00;44.90;;;;;;1586592;74;726;-69
2021/07/01 08:53:09;;;;;;;;;;;24.00;45.00;;;;;;1569442;74;807;-70
2021/07/01 08:55:10;;;;;;;;;;;24.10;45.20;;;;;;1573103;72;1632;-66
2021/07/01 08:57:13;;;;;;;;;;;24.00;45.00;;;;;;1582342;73;1095;-68
2021/07/01 08:59:14;;;;;;;;;;;24.00;45.10;;;;;;1569499;74;679;-69
2021/07/01 09:01:19;;;;;;;;;;;24.10;45.20;;;;;;1582658;73;744;-69
2021/07/01 09:03:21;;;;;;;;;;;24.00;45.10;;;;;;1584548;73;704;-70
2021/07/01 09:05:23;;;;;;;;;;;24.10;45.20;;;;;;1569949;73;765;-68
2021/07/01 09:07:25;;;;;;;;;;;24.10;45.20;;;;;;1583981;74;1931;-70
2021/07/01 09:09:29;;;;;;;;;;;24.10;45.20;;;;;;1585482;74;730;-67
2021/07/01 09:11:30;;;;;;;;;;;24.00;45.10;;;;;;1585187;74;710;-68
2021/07/01 09:13:32;;;;;;;;;;;24.10;45.30;;;;;;1577307;74;719;-70
2021/07/01 09:15:34;;;;;;;;;;;24.00;45.20;;;;;;1576424;73;626;-69
2021/07/01 09:17:37;;;;;;;;;;;24.00;45.20;;;;;;1574304;73;1258;-70
2021/07/01 09:19:39;;;;;;;;;;;24.00;45.20;;;;;;1568398;74;806;-66
2021/07/01 09:21:40;;;;;;;;;;;24.00;45.20;;;;;;1571748;74;708;-69
2021/07/01 09:23:46;;;;;;;;;;;24.00;45.20;;;;;;1577748;74;678;-69
2021/07/01 09:25:46;;;;;;;;;;;24.10;45.30;;;;;;1572080;73;1142;-70
2021/07/01 09:27:48;;;;;;;;;;;24.00;45.30;;;;;;1573090;73;1944;-69
2021/07/01 09:29:50;;;;;;;;;;;24.00;45.20;;;;;;1571285;73;757;-63
2021/07/01 09:31:54;;;;;;;;;;;24.00;45.40;;;;;;1570179;74;707;-68
2021/07/01 09:33:57;;;;;;;;;;;24.10;45.50;;;;;;1579727;74;791;-69
2021/07/01 09:35:59;;;;;;;;;;;24.10;45.50;;;;;;1574371;74;699;-68
2021/07/01 09:38:03;;;;;;;;;;;24.10;45.50;;;;;;1571664;73;1132;-67
2021/07/01 09:40:06;;;;;;;;;;;24.10;45.50;;;;;;1577902;74;1039;-68
2021/07/01 09:42:08;;;;;;;;;;;24.00;45.50;;;;;;1573144;74;729;-68
2021/07/01 09:44:10;;;;;;;;;;;24.00;45.30;;;;;;1581938;73;745;-70
2021/07/01 09:46:13;;;;;;;;;;;24.00;45.30;;;;;;1576109;74;1923;-68
2021/07/01 09:48:15;;;;;;;;;;;24.10;45.50;;;;;;1567886;74;1121;-65
2021/07/01 09:50:17;;;;;;;;;;;24.00;45.40;;;;;;1570746;73;773;-68
2021/07/01 09:52:19;;;;;;;;;;;24.00;45.40;;;;;;1572763;73;798;-67
2021/07/01 09:54:22;;;;;;;;;;;24.00;45.50;;;;;;1576067;73;701;-67
2021/07/01 09:56:26;;;;;;;;;;;24.10;45.60;;;;;;1581609;74;750;-67
2021/07/01 09:58:28;;;;;;;;;;;24.00;45.40;;;;;;1580087;73;1097;-66
2021/07/01 10:00:31;;;;;;;;;;;24.00;45.40;;;;;;1562669;75;787;-71
2021/07/01 10:02:33;;;;;;;;;;;24.00;45.50;;;;;;1577371;74;771;-70
2021/07/01 10:04:37;;;;;;;;;;;24.00;45.50;;;;;;1583246;74;1089;-68
2021/07/01 10:06:39;;;;;;;;;;;24.00;45.50;;;;;;1582771;74;1915;-70
2021/07/01 10:08:42;;;;;;;;;;;24.10;45.60;;;;;;1583004;74;1159;-70
2021/07/01 10:10:44;;;;;;;;;;;24.00;45.50;;;;;;1574651;74;659;-70
2021/07/01 10:12:51;;;;;;;;;;;24.10;45.60;;;;;;1580053;73;769;-69
2021/07/01 10:14:55;;;;;;;;;;;24.00;45.60;;;;;;1582649;74;798;-69
2021/07/01 10:16:59;;;;;;;;;;;24.00;45.50;;;;;;1571565;73;721;-69
2021/07/01 10:19:01;;;;;;;;;;;24.10;45.70;;;;;;1570816;73;1099;-69
2021/07/01 10:21:03;;;;;;;;;;;24.10;45.70;;;;;;1572926;74;709;-68
2021/07/01 10:23:06;;;;;;;;;;;24.10;45.80;;;;;;1558667;75;698;-67
2021/07/01 10:25:09;;;;;;;;;;;24.10;45.90;;;;;;1563117;74;1768;-70
2021/07/01 10:27:11;;;;;;;;;;;24.00;45.70;;;;;;1564965;74;1934;-67
2021/07/01 10:29:13;;;;;;;;;;;24.10;45.90;;;;;;1576480;75;731;-65
2021/07/01 10:31:15;;;;;;;;;;;24.10;45.80;;;;;;1574000;74;776;-67
2021/07/01 10:33:26;;;;;;;;;;;24.20;45.90;;;;;;1573679;74;699;-62
2021/07/01 10:35:29;;;;;;;;;;;24.10;45.90;;;;;;1580629;74;856;-65
2021/07/01 10:37:31;;;;;;;;;;;24.10;45.90;;;;;;1575513;74;1129;-65
2021/07/01 10:39:33;;;;;;;;;;;24.00;45.80;;;;;;1570039;74;735;-67
2021/07/01 10:41:37;;;;;;;;;;;24.00;45.80;;;;;;1573558;74;796;-68
2021/07/01 10:43:47;;;;;;;;;;;24.00;45.80;;;;;;1568265;74;687;-65
2021/07/01 10:45:55;;;;;;;;;;;24.00;45.80;;;;;;1574000;74;951;-65
2021/07/01 10:48:16;;;;;;;;;;;24.00;45.90;;;;;;1567901;74;1937;-65
2021/07/01 10:50:23;;;;;;;;;;;24.00;46.00;;;;;;1566360;74;790;-66
2021/07/01 10:52:34;;;;;;;;;;;24.00;45.90;;;;;;1580304;75;757;-68
2021/07/01 10:54:36;;;;;;;;;;;23.90;45.90;;;;;;1572016;74;706;-67
2021/07/01 10:56:41;;;;;;;;;;;23.90;45.90;;;;;;1569291;73;778;-71
2021/07/01 10:58:43;;;;;;;;;;;23.90;45.90;;;;;;1568812;74;1152;-68
2021/07/01 11:00:48;;;;;;;;;;;24.00;45.90;;;;;;1575341;74;775;-66
2021/07/01 11:02:51;;;;;;;;;;;23.90;46.00;;;;;;1575670;74;762;-66
2021/07/01 11:04:54;;;;;;;;;;;24.00;46.10;;;;;;1569409;73;765;-69
2021/07/01 11:06:57;;;;;;;;;;;24.00;46.10;;;;;;1565265;74;1915;-68
2021/07/01 11:08:59;;;;;;;;;;;24.00;46.10;;;;;;1573951;73;1156;-68
2021/07/01 11:11:02;;;;;;;;;;;24.00;46.20;;;;;;1579695;73;791;-66
2021/07/01 11:13:08;;;;;;;;;;;23.90;46.10;;;;;;1572024;74;729;-67
2021/07/01 11:15:10;;;;;;;;;;;23.90;46.10;;;;;;1572049;74;773;-68
2021/07/01 11:17:12;;;;;;;;;;;24.00;46.20;;;;;;1568404;74;1131;-67
2021/07/01 11:19:17;;;;;;;;;;;24.00;46.30;;;;;;1575375;74;757;-68
2021/07/01 11:21:20;;;;;;;;;;;24.00;46.20;;;;;;1566528;74;718;-67
2021/07/01 11:23:22;;;;;;;;;;;24.00;46.20;;;;;;1568272;74;748;-70
2021/07/01 11:25:25;;;;;;;;;;;23.90;46.30;;;;;;1570040;73;781;-65
2021/07/01 11:27:27;;;;;;;;;;;24.00;46.30;;;;;;1578358;74;1918;-67
2021/07/01 11:29:39;;;;;;;;;;;23.90;46.20;;;;;;1579142;74;698;-67
2021/07/01 11:31:43;;;;;;;;;;;23.90;46.20;;;;;;1570469;74;793;-65
2021/07/01 11:33:51;;;;;;;;;;;24.00;46.20;;;;;;1566295;74;704;-67
2021/07/01 11:36:01;;;;;;;;;;;23.90;46.30;;;;;;1572623;74;730;-69
2021/07/01 11:38:03;;;;;;;;;;;24.00;46.30;;;;;;1562827;74;1126;-70
2021/07/01 11:40:12;;;;;;;;;;;24.00;46.10;;;;;;1574700;74;761;-70
2021/07/01 11:42:14;;;;;;;;;;;24.00;46.10;;;;;;1579235;74;1280;-69
2021/07/01 11:44:16;;;;;;;;;;;24.00;46.00;;;;;;1579185;73;769;-66
2021/07/01 11:46:19;;;;;;;;;;;24.10;46.10;;;;;;1576845;73;707;-67
2021/07/01 11:48:22;;;;;;;;;;;24.10;46.30;;;;;;1569665;74;1939;-69
2021/07/01 11:50:24;;;;;;;;;;;24.10;46.10;;;;;;1571107;73;702;-69
2021/07/01 11:52:30;;;;;;;;;;;24.10;46.30;;;;;;1576701;74;736;-70
2021/07/01 11:54:29;;;;;;;;;;;24.10;46.40;;;;;;1580710;73;1097;-67
2021/07/01 11:56:53;;;;;;;;;;;24.10;46.70;;;;;;1571160;74;619;-68
2021/07/01 11:58:34;;;;;;;;;;;24.10;46.90;;;;;;1575153;73;1129;-67
2021/07/01 12:00:36;;;;;;;;;;;24.10;47.10;;;;;;1578699;74;705;-68
2021/07/01 12:02:38;;;;;;;;;;;24.20;47.30;;;;;;1574547;74;672;-67
2021/07/01 12:04:40;;;;;;;;;;;24.20;47.50;;;;;;1584273;74;655;-68
2021/07/01 12:06:46;;;;;;;;;;;24.20;47.70;;;;;;1586654;74;733;-67
2021/07/01 12:08:48;;;;;;;;;;;24.10;47.80;;;;;;1585124;74;1923;-68
2021/07/01 12:10:52;;;;;;;;;;;24.20;47.80;;;;;;1585855;73;709;-66
2021/07/01 12:12:55;;;;;;;;;;;24.20;47.90;;;;;;1572216;74;1773;-67